createdAt,value
2017-08-31T00:00:19.174Z,0
2017-08-31T00:01:20.726Z,0
2017-08-31T00:02:22.124Z,0
2017-08-31T00:03:24.217Z,0
2017-08-31T00:04:25.607Z,0
2017-08-31T00:05:27.694Z,0
2017-08-31T00:06:29.091Z,0
2017-08-31T00:07:31.222Z,0
2017-08-31T00:08:32.612Z,0
2017-08-31T00:09:34.299Z,0
2017-08-31T00:10:35.696Z,0
2017-08-31T00:11:37.763Z,0
2017-08-31T00:12:39.205Z,0
2017-08-31T00:13:41.342Z,0
2017-08-31T00:14:42.740Z,0
2017-08-31T00:15:44.373Z,0
2017-08-31T00:16:45.773Z,0
2017-08-31T00:17:47.570Z,0
2017-08-31T00:18:49.106Z,0
2017-08-31T00:19:50.508Z,0
2017-08-31T00:20:51.907Z,0
2017-08-31T00:21:53.434Z,0
2017-08-31T00:22:54.837Z,0
2017-08-31T00:23:56.238Z,0
2017-08-31T00:24:57.948Z,0
2017-08-31T00:25:59.360Z,0
2017-08-31T00:27:00.765Z,0
2017-08-31T00:28:02.481Z,0
2017-08-31T00:29:03.878Z,0
2017-08-31T00:30:05.562Z,0
2017-08-31T00:31:06.961Z,0
2017-08-31T00:32:08.646Z,0
2017-08-31T00:33:10.047Z,0
2017-08-31T00:34:12.109Z,0
2017-08-31T00:35:13.510Z,0
2017-08-31T00:36:14.908Z,0
2017-08-31T00:37:16.464Z,0
2017-08-31T00:38:17.862Z,0
2017-08-31T00:39:19.263Z,0
2017-08-31T00:40:20.786Z,0
2017-08-31T00:41:22.566Z,0
2017-08-31T00:42:23.964Z,0
2017-08-31T00:43:25.522Z,0
2017-08-31T00:44:26.920Z,0
2017-08-31T00:45:28.335Z,0
2017-08-31T00:46:30.040Z,0
2017-08-31T00:47:31.451Z,0
2017-08-31T00:48:32.851Z,0
2017-08-31T00:49:34.757Z,0
2017-08-31T00:50:36.153Z,0
2017-08-31T00:51:37.555Z,0
2017-08-31T00:52:39.005Z,0
2017-08-31T00:53:40.803Z,0
2017-08-31T00:54:42.211Z,0
2017-08-31T00:55:44.240Z,0
2017-08-31T00:56:45.637Z,0
2017-08-31T00:57:47.038Z,0
2017-08-31T00:58:48.564Z,0
2017-08-31T00:59:49.969Z,0
2017-08-31T01:00:51.369Z,0
2017-08-31T01:01:53.082Z,0
2017-08-31T01:02:54.478Z,0
2017-08-31T01:03:55.878Z,0
2017-08-31T01:04:57.404Z,0
2017-08-31T01:05:58.802Z,0
2017-08-31T01:07:00.221Z,0
2017-08-31T01:08:01.929Z,0
2017-08-31T01:09:03.326Z,0
2017-08-31T01:10:05.039Z,0
2017-08-31T01:11:06.438Z,0
2017-08-31T01:12:08.103Z,0
2017-08-31T01:13:09.888Z,0
2017-08-31T01:14:11.611Z,0
2017-08-31T01:15:12.991Z,0
2017-08-31T01:16:14.682Z,0
2017-08-31T01:17:16.033Z,0
2017-08-31T01:18:17.558Z,0
2017-08-31T01:19:18.959Z,0
2017-08-31T01:20:20.644Z,0
2017-08-31T01:21:22.045Z,0
2017-08-31T01:22:23.858Z,0
2017-08-31T01:23:25.385Z,0
2017-08-31T01:24:26.791Z,0
2017-08-31T01:25:28.192Z,0
2017-08-31T01:26:29.713Z,0
2017-08-31T01:27:31.103Z,0
2017-08-31T01:28:32.781Z,0
2017-08-31T01:29:34.300Z,0
2017-08-31T01:30:35.867Z,0
2017-08-31T01:31:37.649Z,0
2017-08-31T01:32:39.053Z,0
2017-08-31T01:33:40.598Z,0
2017-08-31T01:34:41.996Z,0
2017-08-31T01:35:43.406Z,0
2017-08-31T01:36:44.917Z,0
2017-08-31T01:37:46.317Z,0
2017-08-31T01:38:48.387Z,0
2017-08-31T01:39:49.796Z,0
2017-08-31T01:40:51.303Z,0
2017-08-31T01:41:52.700Z,0
2017-08-31T01:42:54.096Z,0
2017-08-31T01:43:55.530Z,0
2017-08-31T01:44:56.930Z,0
2017-08-31T01:45:58.333Z,0
2017-08-31T01:46:59.939Z,0
2017-08-31T01:48:01.339Z,0
2017-08-31T01:49:03.019Z,0
2017-08-31T01:50:04.453Z,0
2017-08-31T01:51:06.106Z,0
2017-08-31T01:52:07.507Z,0
2017-08-31T01:53:08.907Z,0
2017-08-31T01:54:10.428Z,0
2017-08-31T01:55:11.828Z,0
2017-08-31T01:56:13.225Z,0
2017-08-31T01:57:14.761Z,0
2017-08-31T01:58:16.157Z,0
2017-08-31T01:59:17.558Z,0
2017-08-31T02:00:19.089Z,0
2017-08-31T02:01:20.483Z,0
2017-08-31T02:02:21.881Z,0
2017-08-31T02:03:23.775Z,0
2017-08-31T02:04:25.174Z,0
2017-08-31T02:05:26.695Z,0
2017-08-31T02:06:28.083Z,0
2017-08-31T02:07:29.764Z,0
2017-08-31T02:08:31.165Z,0
2017-08-31T02:09:32.853Z,0
2017-08-31T02:10:34.261Z,0
2017-08-31T02:11:35.936Z,0
2017-08-31T02:12:37.335Z,0
2017-08-31T02:13:39.023Z,0
2017-08-31T02:14:40.421Z,0
2017-08-31T02:15:42.107Z,0
2017-08-31T02:16:43.502Z,0
2017-08-31T02:17:45.568Z,0
2017-08-31T02:18:46.967Z,0
2017-08-31T02:19:48.486Z,0
2017-08-31T02:20:49.887Z,0
2017-08-31T02:21:51.574Z,0
2017-08-31T02:22:52.971Z,0
2017-08-31T02:23:54.652Z,0
2017-08-31T02:24:56.053Z,0
2017-08-31T02:25:57.739Z,0
2017-08-31T02:26:59.138Z,0
2017-08-31T02:28:00.547Z,0
2017-08-31T02:29:02.060Z,0
2017-08-31T02:30:03.460Z,0
2017-08-31T02:31:05.232Z,0
2017-08-31T02:32:06.791Z,0
2017-08-31T02:33:08.193Z,0
2017-08-31T02:34:09.593Z,0
2017-08-31T02:35:11.128Z,0
2017-08-31T02:36:12.527Z,0
2017-08-31T02:37:13.925Z,0
2017-08-31T02:38:15.432Z,0
2017-08-31T02:39:16.831Z,0
2017-08-31T02:40:18.519Z,0
2017-08-31T02:41:19.920Z,0
2017-08-31T02:42:22.423Z,0
2017-08-31T02:43:23.823Z,0
2017-08-31T02:44:25.509Z,0
2017-08-31T02:45:26.907Z,0
2017-08-31T02:46:28.389Z,0
2017-08-31T02:47:30.195Z,0
2017-08-31T02:48:31.885Z,0
2017-08-31T02:49:33.286Z,0
2017-08-31T02:50:34.971Z,0
2017-08-31T02:51:36.379Z,0
2017-08-31T02:52:38.068Z,0
2017-08-31T02:53:39.464Z,0
2017-08-31T02:54:41.142Z,0
2017-08-31T02:55:42.534Z,0
2017-08-31T02:56:44.158Z,0
2017-08-31T02:57:45.557Z,0
2017-08-31T02:58:47.108Z,0
2017-08-31T02:59:48.503Z,0
2017-08-31T03:00:49.997Z,0
2017-08-31T03:01:51.394Z,0
2017-08-31T03:02:53.073Z,0
2017-08-31T03:03:54.473Z,0
2017-08-31T03:04:55.954Z,0
2017-08-31T03:05:57.351Z,0
2017-08-31T03:06:58.834Z,0
2017-08-31T03:08:00.234Z,0
2017-08-31T03:09:01.715Z,0
2017-08-31T03:10:03.117Z,0
2017-08-31T03:11:04.801Z,0
2017-08-31T03:12:06.203Z,0
2017-08-31T03:13:08.063Z,0
2017-08-31T03:14:09.472Z,0
2017-08-31T03:15:11.349Z,0
2017-08-31T03:16:12.749Z,0
2017-08-31T03:17:14.264Z,0
2017-08-31T03:18:15.663Z,0
2017-08-31T03:19:17.443Z,0
2017-08-31T03:20:18.991Z,0
2017-08-31T03:21:20.388Z,0
2017-08-31T03:22:21.788Z,0
2017-08-31T03:23:23.315Z,0
2017-08-31T03:24:24.714Z,0
2017-08-31T03:25:26.402Z,0
2017-08-31T03:26:27.803Z,0
2017-08-31T03:27:29.282Z,0
2017-08-31T03:28:30.675Z,0
2017-08-31T03:29:32.128Z,0
2017-08-31T03:30:33.606Z,0
2017-08-31T03:31:35.388Z,0
2017-08-31T03:32:36.788Z,0
2017-08-31T03:33:38.341Z,0
2017-08-31T03:34:39.739Z,0
2017-08-31T03:35:41.212Z,0
2017-08-31T03:36:42.618Z,0
2017-08-31T03:37:44.093Z,0
2017-08-31T03:38:45.497Z,0
2017-08-31T03:39:46.975Z,0
2017-08-31T03:40:48.372Z,0
2017-08-31T03:41:49.856Z,0
2017-08-31T03:42:51.276Z,0
2017-08-31T03:43:52.675Z,0
2017-08-31T03:44:54.554Z,0
2017-08-31T03:45:55.976Z,0
2017-08-31T03:46:57.386Z,0
2017-08-31T03:47:58.850Z,0
2017-08-31T03:49:01.020Z,0
2017-08-31T03:50:02.739Z,0
2017-08-31T03:51:04.635Z,0
2017-08-31T03:52:06.497Z,0
2017-08-31T03:53:08.153Z,0
2017-08-31T03:54:09.553Z,0
2017-08-31T03:55:10.958Z,0
2017-08-31T03:56:12.852Z,0
2017-08-31T03:57:14.250Z,0
2017-08-31T03:58:15.650Z,0
2017-08-31T03:59:17.213Z,0
2017-08-31T04:00:18.611Z,0
2017-08-31T04:01:20.084Z,0
2017-08-31T04:02:21.487Z,0
2017-08-31T04:03:22.967Z,0
2017-08-31T04:04:24.376Z,0
2017-08-31T04:05:25.848Z,0
2017-08-31T04:06:27.244Z,0
2017-08-31T04:07:28.729Z,0
2017-08-31T04:08:30.129Z,0
2017-08-31T04:09:31.529Z,0
2017-08-31T04:10:33.051Z,0
2017-08-31T04:11:34.448Z,0
2017-08-31T04:12:35.852Z,0
2017-08-31T04:13:37.370Z,0
2017-08-31T04:14:38.770Z,0
2017-08-31T04:15:40.256Z,0
2017-08-31T04:16:41.654Z,0
2017-08-31T04:17:43.080Z,0
2017-08-31T04:18:44.493Z,0
2017-08-31T04:19:45.883Z,0
2017-08-31T04:20:47.402Z,0
2017-08-31T04:21:48.819Z,0
2017-08-31T04:22:50.208Z,0
2017-08-31T04:23:51.725Z,0
2017-08-31T04:24:53.148Z,0
2017-08-31T04:25:54.572Z,0
2017-08-31T04:26:57.078Z,0
2017-08-31T04:27:58.476Z,0
2017-08-31T04:28:59.875Z,0
2017-08-31T04:30:01.391Z,0
2017-08-31T04:31:02.792Z,0
2017-08-31T04:32:04.271Z,0
2017-08-31T04:33:05.671Z,0
2017-08-31T04:34:07.168Z,0
2017-08-31T04:35:08.591Z,0
2017-08-31T04:36:10.035Z,0
2017-08-31T04:37:11.435Z,0
2017-08-31T04:38:12.915Z,0
2017-08-31T04:39:14.314Z,0
2017-08-31T04:40:15.811Z,0
2017-08-31T04:41:17.210Z,0
2017-08-31T04:42:18.687Z,0
2017-08-31T04:43:21.114Z,0
2017-08-31T04:44:22.595Z,0
2017-08-31T04:45:23.997Z,0
2017-08-31T04:46:25.511Z,0
2017-08-31T04:47:26.912Z,0
2017-08-31T04:48:29.416Z,0
2017-08-31T04:49:30.815Z,0
2017-08-31T04:50:32.638Z,0
2017-08-31T04:51:34.038Z,0
2017-08-31T04:52:35.540Z,0
2017-08-31T04:53:36.938Z,0
2017-08-31T04:54:38.422Z,0
2017-08-31T04:55:40.200Z,0
2017-08-31T04:56:41.711Z,0
2017-08-31T04:57:43.118Z,0
2017-08-31T04:58:44.594Z,0
2017-08-31T04:59:46.011Z,0
2017-08-31T05:00:47.427Z,0
2017-08-31T05:01:48.940Z,0
2017-08-31T05:02:50.312Z,0
2017-08-31T05:03:51.711Z,0
2017-08-31T05:04:53.623Z,0
2017-08-31T05:05:55.022Z,0
2017-08-31T05:06:56.558Z,0
2017-08-31T05:07:57.953Z,0
2017-08-31T05:08:59.409Z,0
2017-08-31T05:10:00.809Z,0
2017-08-31T05:11:02.215Z,0
2017-08-31T05:12:03.731Z,0
2017-08-31T05:13:05.132Z,0
2017-08-31T05:14:06.914Z,0
2017-08-31T05:15:08.463Z,0
2017-08-31T05:16:09.864Z,0
2017-08-31T05:17:12.384Z,0
2017-08-31T05:18:13.786Z,0
2017-08-31T05:19:15.251Z,0
2017-08-31T05:20:16.648Z,0
2017-08-31T05:21:18.053Z,0
2017-08-31T05:22:19.573Z,0
2017-08-31T05:23:20.970Z,0
2017-08-31T05:24:22.369Z,0
2017-08-31T05:25:23.895Z,0
2017-08-31T05:26:25.293Z,0
2017-08-31T05:27:26.773Z,0
2017-08-31T05:28:28.176Z,0
2017-08-31T05:29:29.659Z,0
2017-08-31T05:30:31.055Z,0
2017-08-31T05:31:32.536Z,0
2017-08-31T05:32:33.972Z,0
2017-08-31T05:33:35.423Z,0
2017-08-31T05:34:36.826Z,5
2017-08-31T05:35:38.301Z,5
2017-08-31T05:36:39.702Z,0
2017-08-31T05:37:41.182Z,5
2017-08-31T05:38:42.580Z,5
2017-08-31T05:39:44.061Z,5
2017-08-31T05:40:45.463Z,5
2017-08-31T05:41:46.864Z,5
2017-08-31T05:42:48.383Z,5
2017-08-31T05:43:49.784Z,5
2017-08-31T05:44:51.194Z,5
2017-08-31T05:45:52.710Z,5
2017-08-31T05:46:54.110Z,5
2017-08-31T05:47:55.632Z,5
2017-08-31T05:48:57.036Z,5
2017-08-31T05:49:58.466Z,5
2017-08-31T05:50:59.865Z,5
2017-08-31T05:52:01.349Z,5
2017-08-31T05:53:02.746Z,5
2017-08-31T05:54:04.227Z,5
2017-08-31T05:55:05.626Z,5
2017-08-31T05:56:07.028Z,5
2017-08-31T05:57:08.548Z,5
2017-08-31T05:58:09.947Z,5
2017-08-31T05:59:11.345Z,5
2017-08-31T06:00:12.869Z,5
2017-08-31T06:01:14.268Z,5
2017-08-31T06:02:15.669Z,5
2017-08-31T06:03:17.191Z,5
2017-08-31T06:04:18.594Z,5
2017-08-31T06:05:19.991Z,5
2017-08-31T06:06:21.513Z,5
2017-08-31T06:07:22.918Z,5
2017-08-31T06:08:24.325Z,5
2017-08-31T06:09:25.836Z,5
2017-08-31T06:10:27.260Z,5
2017-08-31T06:11:28.662Z,5
2017-08-31T06:12:30.065Z,5
2017-08-31T06:13:31.495Z,5
2017-08-31T06:14:32.894Z,10
2017-08-31T06:15:34.407Z,5
2017-08-31T06:16:35.805Z,5
2017-08-31T06:17:37.225Z,5
2017-08-31T06:18:38.640Z,5
2017-08-31T06:19:40.037Z,10
2017-08-31T06:20:41.438Z,10
2017-08-31T06:21:42.947Z,10
2017-08-31T06:22:44.374Z,10
2017-08-31T06:23:45.771Z,10
2017-08-31T06:24:47.171Z,5
2017-08-31T06:25:48.604Z,5
2017-08-31T06:26:50.003Z,5
2017-08-31T06:27:51.486Z,10
2017-08-31T06:28:52.891Z,10
2017-08-31T06:29:54.367Z,10
2017-08-31T06:30:55.772Z,10
2017-08-31T06:31:57.248Z,10
2017-08-31T06:32:58.667Z,15
2017-08-31T06:34:00.128Z,15
2017-08-31T06:35:01.529Z,20
2017-08-31T06:36:03.010Z,20
2017-08-31T06:37:04.429Z,20
2017-08-31T06:38:05.926Z,25
2017-08-31T06:39:07.296Z,25
2017-08-31T06:40:08.786Z,25
2017-08-31T06:41:10.187Z,25
2017-08-31T06:42:11.650Z,25
2017-08-31T06:43:13.057Z,25
2017-08-31T06:44:14.533Z,25
2017-08-31T06:45:15.941Z,25
2017-08-31T06:46:17.412Z,30
2017-08-31T06:47:18.820Z,30
2017-08-31T06:48:20.292Z,25
2017-08-31T06:49:21.696Z,30
2017-08-31T06:50:23.174Z,30
2017-08-31T06:51:24.592Z,35
2017-08-31T06:52:26.061Z,30
2017-08-31T06:53:27.460Z,35
2017-08-31T06:54:28.934Z,35
2017-08-31T06:55:30.333Z,40
2017-08-31T06:56:31.815Z,40
2017-08-31T06:57:33.221Z,40
2017-08-31T06:58:34.702Z,40
2017-08-31T06:59:36.108Z,40
2017-08-31T07:00:37.578Z,35
2017-08-31T07:01:38.982Z,25
2017-08-31T07:02:40.460Z,25
2017-08-31T07:03:41.879Z,30
2017-08-31T07:04:43.339Z,25
2017-08-31T07:05:44.742Z,30
2017-08-31T07:06:46.145Z,35
2017-08-31T07:07:47.661Z,35
2017-08-31T07:08:49.064Z,30
2017-08-31T07:09:50.466Z,35
2017-08-31T07:10:51.980Z,35
2017-08-31T07:11:53.380Z,35
2017-08-31T07:12:54.787Z,35
2017-08-31T07:13:56.307Z,35
2017-08-31T07:14:57.704Z,45
2017-08-31T07:15:59.112Z,40
2017-08-31T07:17:00.623Z,40
2017-08-31T07:18:02.024Z,55
2017-08-31T07:19:03.477Z,50
2017-08-31T07:20:04.946Z,50
2017-08-31T07:21:06.347Z,55
2017-08-31T07:22:07.752Z,50
2017-08-31T07:23:09.270Z,60
2017-08-31T07:24:10.671Z,45
2017-08-31T07:25:12.074Z,45
2017-08-31T07:26:13.587Z,50
2017-08-31T07:27:14.988Z,50
2017-08-31T07:28:16.390Z,40
2017-08-31T07:29:17.910Z,55
2017-08-31T07:30:19.313Z,60
2017-08-31T07:31:20.717Z,55
2017-08-31T07:32:22.230Z,70
2017-08-31T07:33:23.631Z,75
2017-08-31T07:34:25.107Z,80
2017-08-31T07:35:26.512Z,90
2017-08-31T07:36:27.990Z,85
2017-08-31T07:37:29.395Z,115
2017-08-31T07:38:30.873Z,105
2017-08-31T07:39:32.279Z,100
2017-08-31T07:40:33.751Z,90
2017-08-31T07:41:35.152Z,70
2017-08-31T07:42:36.556Z,70
2017-08-31T07:43:38.166Z,70
2017-08-31T07:44:39.569Z,75
2017-08-31T07:45:40.972Z,70
2017-08-31T07:46:42.487Z,65
2017-08-31T07:47:43.890Z,75
2017-08-31T07:48:45.292Z,95
2017-08-31T07:49:46.810Z,105
2017-08-31T07:50:48.214Z,80
2017-08-31T07:51:49.621Z,90
2017-08-31T07:52:51.132Z,95
2017-08-31T07:53:52.534Z,100
2017-08-31T07:54:53.953Z,90
2017-08-31T07:55:55.452Z,80
2017-08-31T07:56:56.854Z,70
2017-08-31T07:57:58.259Z,65
2017-08-31T07:58:59.773Z,70
2017-08-31T08:00:01.174Z,60
2017-08-31T08:01:02.654Z,60
2017-08-31T08:02:04.058Z,75
2017-08-31T08:03:05.462Z,85
2017-08-31T08:04:06.986Z,100
2017-08-31T08:05:08.388Z,105
2017-08-31T08:06:09.794Z,75
2017-08-31T08:07:11.407Z,70
2017-08-31T08:08:12.809Z,65
2017-08-31T08:09:14.211Z,65
2017-08-31T08:10:15.931Z,70
2017-08-31T08:11:17.333Z,55
2017-08-31T08:12:18.750Z,65
2017-08-31T08:13:20.455Z,65
2017-08-31T08:14:21.859Z,55
2017-08-31T08:15:23.262Z,65
2017-08-31T08:16:24.981Z,50
2017-08-31T08:17:26.383Z,60
2017-08-31T08:18:27.784Z,60
2017-08-31T08:19:29.507Z,65
2017-08-31T08:20:30.910Z,75
2017-08-31T08:21:32.592Z,70
2017-08-31T08:22:33.995Z,55
2017-08-31T08:23:35.604Z,50
2017-08-31T08:24:37.004Z,45
2017-08-31T08:25:38.560Z,45
2017-08-31T08:26:39.964Z,55
2017-08-31T08:27:41.645Z,55
2017-08-31T08:28:43.047Z,100
2017-08-31T08:29:44.730Z,105
2017-08-31T08:30:46.135Z,110
2017-08-31T08:31:48.020Z,95
2017-08-31T08:32:49.443Z,90
2017-08-31T08:33:51.200Z,80
2017-08-31T08:34:52.636Z,70
2017-08-31T08:35:54.191Z,75
2017-08-31T08:36:55.595Z,75
2017-08-31T08:37:56.997Z,70
2017-08-31T08:38:58.718Z,75
2017-08-31T08:40:00.122Z,75
2017-08-31T08:41:01.527Z,80
2017-08-31T08:42:03.275Z,85
2017-08-31T08:43:04.677Z,85
2017-08-31T08:44:06.333Z,105
2017-08-31T08:45:07.736Z,125
2017-08-31T08:46:09.419Z,160
2017-08-31T08:47:10.824Z,155
2017-08-31T08:48:12.509Z,140
2017-08-31T08:49:13.921Z,115
2017-08-31T08:50:15.588Z,95
2017-08-31T08:51:16.991Z,80
2017-08-31T08:52:18.675Z,70
2017-08-31T08:53:20.080Z,55
2017-08-31T08:54:21.661Z,45
2017-08-31T08:55:23.064Z,40
2017-08-31T08:56:24.641Z,55
2017-08-31T08:57:26.045Z,120
2017-08-31T08:58:27.730Z,140
2017-08-31T08:59:29.132Z,85
2017-08-31T09:00:30.810Z,65
2017-08-31T09:01:32.222Z,115
2017-08-31T09:02:33.899Z,105
2017-08-31T09:03:35.304Z,150
2017-08-31T09:04:36.711Z,180
2017-08-31T09:05:38.422Z,155
2017-08-31T09:06:39.828Z,165
2017-08-31T09:07:41.251Z,155
2017-08-31T09:08:42.957Z,160
2017-08-31T09:09:44.357Z,135
2017-08-31T09:10:45.761Z,110
2017-08-31T09:11:47.477Z,160
2017-08-31T09:12:48.883Z,215
2017-08-31T09:13:50.287Z,155
2017-08-31T09:14:51.998Z,140
2017-08-31T09:15:53.405Z,145
2017-08-31T09:16:55.084Z,115
2017-08-31T09:17:56.489Z,135
2017-08-31T09:18:58.167Z,105
2017-08-31T09:19:59.616Z,115
2017-08-31T09:21:01.253Z,135
2017-08-31T09:22:02.663Z,115
2017-08-31T09:23:04.341Z,100
2017-08-31T09:24:05.765Z,100
2017-08-31T09:25:07.427Z,125
2017-08-31T09:26:08.828Z,130
2017-08-31T09:27:10.510Z,145
2017-08-31T09:28:11.917Z,155
2017-08-31T09:29:13.599Z,140
2017-08-31T09:30:15.003Z,125
2017-08-31T09:31:22.496Z,140
2017-08-31T09:32:23.936Z,115
2017-08-31T09:33:25.506Z,160
2017-08-31T09:34:26.912Z,165
2017-08-31T09:35:28.317Z,155
2017-08-31T09:36:29.939Z,145
2017-08-31T09:37:31.343Z,135
2017-08-31T09:38:32.749Z,95
2017-08-31T09:39:34.270Z,100
2017-08-31T09:40:35.637Z,115
2017-08-31T09:41:37.243Z,75
2017-08-31T09:42:38.769Z,115
2017-08-31T09:43:40.263Z,115
2017-08-31T09:44:41.667Z,180
2017-08-31T09:45:43.110Z,125
2017-08-31T09:46:44.514Z,115
2017-08-31T09:47:45.992Z,125
2017-08-31T09:48:47.395Z,130
2017-08-31T09:49:48.872Z,140
2017-08-31T09:50:50.275Z,100
2017-08-31T09:51:51.753Z,175
2017-08-31T09:52:53.158Z,255
2017-08-31T09:53:54.564Z,295
2017-08-31T09:54:56.075Z,185
2017-08-31T09:55:57.477Z,300
2017-08-31T09:56:58.884Z,190
2017-08-31T09:58:00.396Z,170
2017-08-31T09:59:01.801Z,125
2017-08-31T10:00:03.211Z,215
2017-08-31T10:01:04.720Z,220
2017-08-31T10:02:06.122Z,205
2017-08-31T10:03:07.548Z,155
2017-08-31T10:04:09.039Z,190
2017-08-31T10:05:10.444Z,145
2017-08-31T10:06:11.919Z,145
2017-08-31T10:07:13.333Z,185
2017-08-31T10:08:14.799Z,130
2017-08-31T10:09:16.203Z,180
2017-08-31T10:10:17.689Z,180
2017-08-31T10:11:19.093Z,155
2017-08-31T10:12:20.567Z,150
2017-08-31T10:13:22.358Z,130
2017-08-31T10:14:23.855Z,120
2017-08-31T10:15:25.263Z,140
2017-08-31T10:16:26.736Z,110
2017-08-31T10:17:28.141Z,95
2017-08-31T10:18:29.619Z,120
2017-08-31T10:19:31.037Z,135
2017-08-31T10:20:32.494Z,85
2017-08-31T10:21:33.898Z,70
2017-08-31T10:22:35.376Z,70
2017-08-31T10:23:36.787Z,140
2017-08-31T10:24:38.269Z,155
2017-08-31T10:25:39.692Z,195
2017-08-31T10:26:41.141Z,205
2017-08-31T10:27:42.547Z,150
2017-08-31T10:28:44.021Z,85
2017-08-31T10:29:45.428Z,75
2017-08-31T10:30:46.842Z,65
2017-08-31T10:31:48.345Z,85
2017-08-31T10:32:49.745Z,95
2017-08-31T10:33:51.145Z,85
2017-08-31T10:34:53.688Z,100
2017-08-31T10:35:55.103Z,125
2017-08-31T10:36:56.572Z,150
2017-08-31T10:37:57.974Z,190
2017-08-31T10:38:59.389Z,265
2017-08-31T10:40:00.892Z,235
2017-08-31T10:41:02.298Z,225
2017-08-31T10:42:03.704Z,180
2017-08-31T10:43:05.214Z,195
2017-08-31T10:44:06.619Z,200
2017-08-31T10:45:08.026Z,195
2017-08-31T10:46:09.537Z,215
2017-08-31T10:47:10.942Z,300
2017-08-31T10:48:12.446Z,315
2017-08-31T10:49:13.847Z,385
2017-08-31T10:50:15.255Z,335
2017-08-31T10:51:16.737Z,385
2017-08-31T10:52:18.146Z,510
2017-08-31T10:53:19.572Z,315
2017-08-31T10:54:21.060Z,265
2017-08-31T10:55:22.464Z,225
2017-08-31T10:56:23.871Z,255
2017-08-31T10:57:25.380Z,200
2017-08-31T10:58:26.785Z,220
2017-08-31T10:59:28.189Z,235
2017-08-31T11:00:29.702Z,195
2017-08-31T11:01:31.107Z,170
2017-08-31T11:02:32.523Z,190
2017-08-31T11:03:34.052Z,155
2017-08-31T11:04:35.460Z,130
2017-08-31T11:05:36.871Z,125
2017-08-31T11:06:38.357Z,115
2017-08-31T11:07:39.779Z,120
2017-08-31T11:08:41.224Z,145
2017-08-31T11:09:42.682Z,165
2017-08-31T11:10:44.108Z,175
2017-08-31T11:11:45.618Z,210
2017-08-31T11:12:47.022Z,225
2017-08-31T11:13:48.429Z,265
2017-08-31T11:14:49.951Z,320
2017-08-31T11:15:51.354Z,465
2017-08-31T11:16:53.401Z,375
2017-08-31T11:17:54.817Z,320
2017-08-31T11:18:56.316Z,350
2017-08-31T11:19:57.722Z,385
2017-08-31T11:20:59.401Z,460
2017-08-31T11:22:00.804Z,355
2017-08-31T11:23:02.486Z,340
2017-08-31T11:24:03.890Z,540
2017-08-31T11:25:05.295Z,445
2017-08-31T11:26:06.805Z,540
2017-08-31T11:27:08.255Z,295
2017-08-31T11:28:09.656Z,405
2017-08-31T11:29:11.239Z,310
2017-08-31T11:30:12.611Z,275
2017-08-31T11:31:14.291Z,255
2017-08-31T11:32:15.700Z,300
2017-08-31T11:33:17.426Z,420
2017-08-31T11:34:18.785Z,330
2017-08-31T11:35:20.103Z,230
2017-08-31T11:36:21.724Z,225
2017-08-31T11:37:26.139Z,190
2017-08-31T11:38:28.236Z,200
2017-08-31T11:39:30.255Z,245
2017-08-31T11:40:32.768Z,215
2017-08-31T11:41:34.735Z,190
2017-08-31T11:42:36.140Z,180
2017-08-31T11:43:37.554Z,160
2017-08-31T11:44:38.958Z,185
2017-08-31T11:45:40.368Z,150
2017-08-31T11:46:41.773Z,125
2017-08-31T11:47:43.182Z,175
2017-08-31T11:48:44.588Z,205
2017-08-31T11:49:45.998Z,230
2017-08-31T11:50:47.403Z,205
2017-08-31T11:51:48.807Z,195
2017-08-31T11:52:50.217Z,205
2017-08-31T11:53:51.622Z,165
2017-08-31T11:54:53.029Z,165
2017-08-31T11:55:54.445Z,180
2017-08-31T11:56:55.846Z,175
2017-08-31T11:57:57.256Z,210
2017-08-31T11:58:58.663Z,310
2017-08-31T12:00:00.449Z,485
2017-08-31T12:01:01.887Z,760
2017-08-31T12:02:03.315Z,980
2017-08-31T12:03:04.726Z,1250
2017-08-31T12:04:06.133Z,670
2017-08-31T12:05:07.540Z,1405
2017-08-31T12:06:08.941Z,670
2017-08-31T12:07:10.354Z,655
2017-08-31T12:08:11.760Z,645
2017-08-31T12:09:13.169Z,630
2017-08-31T12:10:14.613Z,780
2017-08-31T12:11:16.021Z,755
2017-08-31T12:12:17.420Z,675
2017-08-31T12:13:18.832Z,530
2017-08-31T12:14:20.240Z,475
2017-08-31T12:15:21.649Z,635
2017-08-31T12:16:23.056Z,435
2017-08-31T12:17:24.483Z,355
2017-08-31T12:18:25.910Z,220
2017-08-31T12:19:27.326Z,160
2017-08-31T12:20:29.021Z,130
2017-08-31T12:21:30.424Z,80
2017-08-31T12:22:31.832Z,65
2017-08-31T12:23:33.236Z,80
2017-08-31T12:24:34.648Z,150
2017-08-31T12:25:36.050Z,190
2017-08-31T12:26:37.461Z,195
2017-08-31T12:27:38.865Z,155
2017-08-31T12:28:40.277Z,150
2017-08-31T12:29:41.682Z,180
2017-08-31T12:30:43.093Z,255
2017-08-31T12:31:44.501Z,330
2017-08-31T12:32:45.910Z,310
2017-08-31T12:33:47.321Z,865
2017-08-31T12:34:48.735Z,850
2017-08-31T12:35:50.516Z,830
2017-08-31T12:36:51.932Z,530
2017-08-31T12:37:53.347Z,445
2017-08-31T12:38:54.754Z,385
2017-08-31T12:39:56.154Z,390
2017-08-31T12:40:57.566Z,390
2017-08-31T12:41:58.971Z,500
2017-08-31T12:43:00.379Z,510
2017-08-31T12:44:01.786Z,410
2017-08-31T12:45:03.583Z,355
2017-08-31T12:46:04.975Z,270
2017-08-31T12:47:06.383Z,230
2017-08-31T12:48:08.183Z,205
2017-08-31T12:49:09.589Z,205
2017-08-31T12:50:11.004Z,190
2017-08-31T12:51:12.399Z,215
2017-08-31T12:52:13.825Z,225
2017-08-31T12:53:15.613Z,205
2017-08-31T12:54:17.017Z,215
2017-08-31T12:55:18.420Z,215
2017-08-31T12:56:19.830Z,170
2017-08-31T12:57:21.232Z,115
2017-08-31T12:58:22.639Z,85
2017-08-31T12:59:24.053Z,70
2017-08-31T13:00:25.458Z,55
2017-08-31T13:01:26.872Z,45
2017-08-31T13:02:28.287Z,50
2017-08-31T13:03:29.684Z,70
2017-08-31T13:04:31.092Z,95
2017-08-31T13:05:32.494Z,95
2017-08-31T13:06:34.281Z,75
2017-08-31T13:07:35.684Z,75
2017-08-31T13:08:37.093Z,95
2017-08-31T13:09:38.497Z,100
2017-08-31T13:10:39.905Z,100
2017-08-31T13:11:41.335Z,110
2017-08-31T13:12:42.761Z,125
2017-08-31T13:13:44.184Z,140
2017-08-31T13:14:45.591Z,115
2017-08-31T13:15:46.997Z,145
2017-08-31T13:16:48.410Z,200
2017-08-31T13:17:49.831Z,265
2017-08-31T13:18:51.233Z,320
2017-08-31T13:19:52.635Z,305
2017-08-31T13:20:54.070Z,295
2017-08-31T13:21:55.457Z,380
2017-08-31T13:22:57.246Z,450
2017-08-31T13:23:58.649Z,420
2017-08-31T13:25:00.051Z,385
2017-08-31T13:26:01.465Z,375
2017-08-31T13:27:02.867Z,355
2017-08-31T13:28:04.282Z,300
2017-08-31T13:29:05.701Z,270
2017-08-31T13:30:07.099Z,345
2017-08-31T13:31:08.502Z,355
2017-08-31T13:32:09.914Z,325
2017-08-31T13:33:11.360Z,265
2017-08-31T13:34:12.764Z,265
2017-08-31T13:35:14.556Z,160
2017-08-31T13:36:15.961Z,185
2017-08-31T13:37:17.388Z,285
2017-08-31T13:38:18.874Z,275
2017-08-31T13:39:20.261Z,225
2017-08-31T13:40:21.664Z,155
2017-08-31T13:41:23.178Z,150
2017-08-31T13:42:24.585Z,150
2017-08-31T13:43:26.008Z,120
2017-08-31T13:44:27.495Z,70
2017-08-31T13:45:29.290Z,45
2017-08-31T13:46:30.692Z,40
2017-08-31T13:47:32.124Z,55
2017-08-31T13:48:33.547Z,145
2017-08-31T13:49:39.829Z,260
2017-08-31T13:50:41.224Z,250
2017-08-31T13:51:42.631Z,190
2017-08-31T13:52:44.144Z,125
2017-08-31T13:53:45.548Z,90
2017-08-31T13:54:46.961Z,115
2017-08-31T13:55:48.466Z,165
2017-08-31T13:56:49.870Z,115
2017-08-31T13:57:51.275Z,65
2017-08-31T13:58:52.784Z,35
2017-08-31T13:59:54.564Z,20
2017-08-31T14:00:55.968Z,15
2017-08-31T14:01:57.410Z,30
2017-08-31T14:02:58.813Z,40
2017-08-31T14:04:00.236Z,45
2017-08-31T14:05:01.734Z,35
2017-08-31T14:06:03.137Z,35
2017-08-31T14:07:04.545Z,35
2017-08-31T14:08:06.052Z,35
2017-08-31T14:09:07.453Z,35
2017-08-31T14:10:08.858Z,35
2017-08-31T14:11:10.773Z,30
2017-08-31T14:12:12.178Z,25
2017-08-31T14:13:13.580Z,25
2017-08-31T14:14:15.003Z,25
2017-08-31T14:15:16.441Z,25
2017-08-31T14:16:17.927Z,30
2017-08-31T14:17:19.335Z,40
2017-08-31T14:18:20.761Z,40
2017-08-31T14:19:22.166Z,45
2017-08-31T14:20:23.644Z,50
2017-08-31T14:21:25.814Z,60
2017-08-31T14:22:27.254Z,60
2017-08-31T14:23:29.077Z,60
2017-08-31T14:24:30.486Z,60
2017-08-31T14:25:31.890Z,65
2017-08-31T14:26:33.308Z,75
2017-08-31T14:27:34.718Z,75
2017-08-31T14:28:36.205Z,80
2017-08-31T14:29:37.606Z,95
2017-08-31T14:30:39.074Z,110
2017-08-31T14:31:40.481Z,135
2017-08-31T14:32:41.953Z,150
2017-08-31T14:33:43.736Z,160
2017-08-31T14:34:45.245Z,160
2017-08-31T14:35:46.650Z,175
2017-08-31T14:36:48.078Z,185
2017-08-31T14:37:49.565Z,200
2017-08-31T14:38:50.969Z,190
2017-08-31T14:39:52.379Z,190